Time;durP1;ratioP1;P1;durP2;ratioP2;P2;SDS_P1;SDS_P2;PMS_P1;PMS_P2;Temp;Humidity;BMP_temperature;BMP_pressure;BME280_temperature;BME280_humidity;BME280_pressure;Samples;Min_cycle;Max_cycle;Signal;HPM_P1;HPM_P2
2023/11/01 08:34:17;;;;;;;1.08;0.70;;;;;;;22.71;33.85;94189.34;6022227;22;5482214;-86
2023/11/01 08:36:44;;;;;;;1.30;0.65;;;;;;;22.62;35.03;94186.53;6185345;23;20139;-86
2023/11/01 08:39:10;;;;;;;0.90;0.50;;;;;;;22.06;36.32;94181.59;6185307;23;20004;-86
2023/11/01 12:23:17;;;;;;;1.38;0.70;;;;;;;15.49;44.95;94011.41;6153197;23;20080;-86
2023/11/01 12:25:42;;;;;;;2.67;0.70;;;;;;;15.32;45.50;93993.03;6101389;23;20021;-85
2023/11/01 12:28:08;;;;;;;0.70;0.70;;;;;;;15.63;44.49;93992.50;6102623;23;20036;-85
2023/11/01 12:30:35;;;;;;;0.70;0.60;;;;;;;15.34;45.57;93991.75;6101511;23;20009;-85
2023/11/01 12:43:16;;;;;;;1.02;0.70;;;;;;;15.46;49.21;93968.13;6187712;23;20013;-86
2023/11/01 12:45:44;;;;;;;0.85;0.60;;;;;;;15.82;47.39;93960.81;6156189;23;20029;-85
2023/11/01 12:48:10;;;;;;;2.25;0.52;;;;;;;15.69;47.99;93961.94;6131007;23;20080;-86
2023/11/01 12:50:39;;;;;;;2.72;0.80;;;;;;;15.86;47.23;93954.06;6156467;23;20027;-85
2023/11/01 12:53:04;;;;;;;2.03;0.90;;;;;;;15.78;48.66;93936.94;6131124;23;20013;-86
2023/11/01 12:58:46;;;;;;;1.20;0.65;;;;;;;15.61;47.95;93938.72;6181430;22;20048;-86
2023/11/01 13:01:17;;;;;;;1.15;0.90;;;;;;;15.43;47.67;93931.91;6182199;23;20096;-86
2023/11/01 13:03:43;;;;;;;0.70;0.70;;;;;;;15.28;47.98;93934.31;6157449;23;20005;-85
2023/11/01 13:06:09;;;;;;;0.90;0.75;;;;;;;15.35;47.65;93913.97;6155430;23;20005;-85
2023/11/01 15:15:40;;;;;;;2.40;1.40;;;;;;;13.21;55.10;94027.03;6185798;22;20025;-87
2023/11/01 15:42:28;;;;;;;3.60;2.45;;;;;;;12.85;56.51;93986.97;6185257;22;20021;-86
2023/11/01 16:33:58;;;;;;;2.80;1.92;;;;;;;12.75;56.83;93960.63;6191361;23;20028;-88
2023/11/01 20:03:14;;;;;;;5.03;2.70;;;;;;;11.41;56.45;93888.38;6208120;23;20016;-87
2023/11/01 20:05:39;;;;;;;2.95;2.65;;;;;;;11.72;55.51;93890.84;6190217;23;20020;-86
2023/11/01 20:08:05;;;;;;;3.08;2.75;;;;;;;11.91;54.79;93889.06;6193610;23;20016;-87
2023/11/01 20:10:30;;;;;;;3.60;2.28;;;;;;;11.95;54.72;93884.22;6193296;23;20012;-87
2023/11/01 20:12:56;;;;;;;2.75;2.33;;;;;;;12.09;54.11;93883.03;6218645;23;20014;-86
2023/11/01 20:15:23;;;;;;;6.10;5.50;;;;;;;11.65;55.75;93884.09;6192840;23;20019;-87
2023/11/01 20:17:48;;;;;;;3.75;2.50;;;;;;;11.44;56.54;93885.31;6218852;23;20012;-87
2023/11/01 20:20:14;;;;;;;3.70;2.50;;;;;;;11.12;57.15;93865.41;6193259;23;20012;-87
2023/11/01 20:25:18;;;;;;;3.85;2.35;;;;;;;11.08;57.64;93864.25;6183825;23;20024;-88
2023/11/01 20:27:45;;;;;;;4.03;2.22;;;;;;;11.06;57.29;93847.22;6135172;23;20024;-88
2023/11/01 20:30:12;;;;;;;2.20;1.92;;;;;;;11.26;57.05;93860.06;6158571;23;20048;-88
2023/11/01 20:32:38;;;;;;;2.60;2.22;;;;;;;11.30;56.86;93832.59;6157899;23;20064;-87
2023/11/01 22:32:00;;;;;;;2.97;1.30;;;;;;;9.74;58.63;93634.94;6182432;23;20028;-86
2023/11/01 22:34:29;;;;;;;3.42;1.20;;;;;;;9.87;58.14;93637.44;6133053;23;20021;-85
2023/11/01 22:36:54;;;;;;;2.13;1.40;;;;;;;9.63;59.11;93623.41;6157708;23;20016;-85
2023/11/01 22:39:40;;;;;;;2.65;1.20;;;;;;;9.91;58.45;93617.03;6134025;23;20016;-85
2023/11/01 22:42:12;;;;;;;3.53;1.40;;;;;;;9.81;58.62;93588.94;6158522;23;20012;-85
2023/11/01 22:44:37;;;;;;;2.20;1.17;;;;;;;9.41;59.69;93570.31;6158062;23;20015;-86
2023/11/01 22:47:03;;;;;;;1.33;1.23;;;;;;;8.85;61.45;93554.44;6157600;23;20040;-85
2023/11/01 22:51:54;;;;;;;1.20;1.02;;;;;;;9.46;59.28;93541.91;6227363;22;20102;-85
2023/11/01 22:54:22;;;;;;;1.88;0.95;;;;;;;9.79;58.00;93529.44;6191242;23;20016;-85
2023/11/01 22:56:47;;;;;;;2.03;1.20;;;;;;;9.35;59.06;93523.44;6167319;23;20019;-86
2023/11/01 22:59:16;;;;;;;1.30;0.90;;;;;;;9.62;58.77;93538.00;6167568;23;20004;-85
2023/11/01 23:01:43;;;;;;;1.98;0.80;;;;;;;8.78;60.77;93536.34;6191470;23;20022;-86
2023/11/01 23:04:09;;;;;;;2.13;0.90;;;;;;;8.81;61.29;93532.53;6192365;23;20008;-85
2023/11/01 23:06:34;;;;;;;1.17;0.80;;;;;;;8.93;60.35;93520.53;6221476;23;20008;-85
2023/11/01 23:09:00;;;;;;;0.82;0.80;;;;;;;9.22;59.49;93501.97;6173454;23;20011;-84
2023/11/01 23:11:29;;;;;;;1.35;0.85;;;;;;;9.14;59.50;93521.97;6194394;23;20015;-85
2023/11/01 23:13:54;;;;;;;1.40;0.90;;;;;;;9.47;58.46;93501.97;6168349;23;20004;-85
2023/11/01 23:18:55;;;;;;;0.77;0.77;;;;;;;10.16;55.72;93500.88;6182591;23;20017;-85
2023/11/01 23:21:21;;;;;;;2.30;0.70;;;;;;;10.22;55.56;93488.06;6156878;23;20012;-86
2023/11/01 23:23:47;;;;;;;1.48;0.73;;;;;;;10.22;55.44;93478.44;6157752;23;20044;-86
2023/11/01 23:26:13;;;;;;;0.95;0.70;;;;;;;10.53;54.04;93461.91;6200545;23;20005;-87
2023/11/01 23:28:49;;;;;;;2.38;0.90;;;;;;;10.43;55.60;93472.03;6187525;23;20024;-86
2023/11/01 23:31:18;;;;;;;1.45;0.80;;;;;;;10.76;54.53;93476.00;6212777;23;20024;-86
2023/11/01 23:33:44;;;;;;;1.45;0.95;;;;;;;10.90;54.35;93482.59;6138615;23;20008;-86
2023/11/01 23:36:10;;;;;;;1.80;0.70;;;;;;;10.74;54.28;93467.66;6187805;23;20013;-86
2023/11/01 23:38:43;;;;;;;1.02;0.65;;;;;;;10.88;53.78;93481.25;6187874;23;20044;-86
2023/11/01 23:41:28;;;;;;;2.03;0.73;;;;;;;10.63;54.34;93456.19;6187023;23;20008;-86
2023/11/01 23:43:58;;;;;;;1.45;0.80;;;;;;;10.34;54.94;93458.56;6187748;23;20032;-86
2023/11/01 23:51:37;;;;;;;1.60;0.70;;;;;;;10.44;54.50;93452.81;6211240;23;20020;-86
2023/11/01 23:54:15;;;;;;;0.65;0.63;;;;;;;9.69;56.29;93440.88;6185006;23;20013;-86
2023/11/01 23:56:41;;;;;;;0.63;0.60;;;;;;;10.27;55.62;93447.41;6185515;23;20011;-86
2023/11/01 23:59:07;;;;;;;2.45;0.85;;;;;;;10.34;55.30;93442.19;6139220;23;20046;-86
